Patrick Schuster

Olheiro - VfB Stuttgart
17 Abr 2029
Terça-feira
Processo

Personalidade

Adaptabilidade (20) Ambição (9) Controvérsia (17) Lealdade (5) Pressão (13) Profissionalismo (15) Espírito Esportivo (16) Temperamento (13)

Perfil

Estilo de Treinamento Democrático
Licença Nacional A
Determinação 8
Gestão de Pessoas 15
Motivação 15
Disciplina 14
Satisfação no Trabalho
100%
Fadiga
0%
Função Olheiro
Salário 118.9K p/s
Contrato 14.03.2030

Desempenho

Comportamento Bom
Eficácia do Treinamento
56%
Desenvolvimento do Jogador
60%
Prevenção de Lesões
45%
Implementação Tática
75%

Monitorando agora

73
Jogador Clube Status Habilidade Confiança Observado Última observação Último voto
Bernardo Lima Porto Ativo 120 / 129 40% 2 31.01.2029 -
Tylel Tati Valenciennes Ativo 135 / 135 40% 3 31.01.2029 -
Rafael Mota Sporting CP Ativo 123 / 123 40% 1 31.01.2029 -
Anton Kade Heidenheim Perdido 142 / 143 70% 1 29.01.2029 -
Juho Kilo Köln Perdido 121 / 121 70% 1 29.01.2029 -
Lamine Bèye Alverca Ativo 111 / 131 40% 2 23.01.2029 -
Honest Ahanor Udinese Ativo 141 / 146 40% 1 23.01.2029 -
Lucas Jetten KV Oostende Negociando 120 / 125 40% 1 23.01.2029 -
Giovanni Cantizano Rosario Central Ativo 116 / 115 40% 1 23.01.2029 -
Oumar Camara Vitoria Guimaraes Ativo 144 / 148 40% 1 23.01.2029 -
Lennard Maloney Mainz 05 Perdido 140 / 140 70% 1 22.01.2029 -
Mio Zimmermann Luzern Ativo 113 / 109 40% 1 18.01.2029 -
Trey Nyoni Liverpool Ativo 143 / 159 40% 1 18.01.2029 -
Nejc Viher NK Maribor Ativo 130 / 120 40% 1 16.01.2029 -
Jussef Nasrawe SV Ried Ativo 115 / 113 40% 1 16.01.2029 -
Jorthy Mokio Ajax Ativo 145 / 139 40% 2 12.01.2029 -
Jorge Salinas Racing Santander Ativo 141 / 140 40% 2 12.01.2029 -
Marc Bernal Barcelona Ativo 151 / 156 40% 1 12.01.2029 -
Marius Louër Stade Lavallois Ativo 115 / 121 40% 3 10.01.2029 -
Joane Gadou Borussia Dortmund Ativo 132 / 150 40% 1 10.01.2029 -
Jens Mathijsen Roda Ativo 116 / 122 40% 1 10.01.2029 -
Miguel Figueiredo Benfica Ativo 122 / 132 40% 1 09.01.2029 -
Matías Magdaleno Estudiantes Ativo 118 / 127 40% 2 08.01.2029 -
Nikola Simić Partizan Ativo 123 / 143 40% 1 08.01.2029 -
Raul Kumar Istra 1961 Ativo 124 / 144 40% 1 06.01.2029 -
Matias Siltanen Kalmar FF Ativo 135 / 129 40% 2 04.01.2029 -
Ayyoub Bouaddi West Bromwich Albion Ativo 156 / 164 40% 1 04.01.2029 -
Luis Otávio Sporting Kansas City Ativo 121 / 121 40% 2 01.01.2029 -
Konstantinos Karetsas Borussia Dortmund Ativo 138 / 133 76% 1 01.01.2029 Aprovar
Jan Bürger Burton Albion Ativo 120 / 120 40% 1 01.01.2029 -
Giovanni Cantizano Rosario Central Perdido 118 / 125 40% 1 01.01.2029 -
Lisandro Piñero Banfield Perdido 129 / 135 40% 1 01.01.2029 -
Jacob Peter Hödl Sturm Graz Ativo 122 / 122 40% 3 18.07.2028 -
Alexander Røssing-Lelesiit St. Pauli Ativo 119 / 134 40% 1 12.07.2028 -
Christian Kofane Bayer Leverkusen Ativo 151 / 159 40% 1 12.07.2028 -
Jamal Jimoh-Aloba Northampton Town Ativo 120 / 129 40% 1 12.07.2028 -
Aarón Ochoa Málaga Ativo 127 / 131 40% 2 04.07.2028 -
Sidiki Chérif Coventry City Ativo 144 / 133 40% 1 04.07.2028 -
Buba Sangaré Elche Ativo 129 / 146 40% 1 04.07.2028 -
Mathis Jangeal Chaves Ativo 104 / 116 40% 1 02.06.2028 -
Josh King Fulham Ativo 137 / 147 40% 1 02.06.2028 -
Mao Hosoya Besiktas Ativo 134 / 135 58% 1 01.06.2028 Aprovar
Moussa Diaby Al-Ittihad Ativo 147 / 147 68% 1 01.06.2028 Aprovar
Luther Singh LA Galaxy Ativo 131 / 131 66% 1 01.06.2028 Aprovar
Antonio Gomis Vizela Ativo 140 / 131 40% 1 25.01.2028 -
Simon Simoni Luzern Ativo 121 / 128 40% 1 25.01.2028 -
Raphael Posch Mattersburg Ativo 113 / 125 40% 1 30.08.2027 -
Jens Hjertø-Dahl Hull City Ativo 118 / 129 40% 1 30.08.2027 -
Ayden Heaven Manchester United Ativo 153 / 151 40% 1 28.08.2027 -
Pau Cubarsí Barcelona Ativo 168 / 165 40% 2 26.08.2027 -
Jorrel Hato Chelsea Ativo 143 / 156 40% 1 26.08.2027 -
Yusuf Akçiçek Al-Hilal Ativo 140 / 130 40% 4 22.08.2027 -
Mohamed Seck AS Roma Ativo 101 / 113 40% 1 21.08.2027 -
Henrique Carmo CSKA Moscow Ativo 142 / 143 40% 2 19.08.2027 -
Alessandro Romano AS Roma Ativo 114 / 113 40% 1 19.08.2027 -
Ishé Samuels-Smith Chelsea Ativo 119 / 119 40% 4 15.08.2027 -
Dani Díaz Real Sociedad Ativo 114 / 127 40% 1 09.08.2027 -
Martim Cunha Porto Ativo 110 / 111 40% 3 07.08.2027 -
Alexis Fretes Libertad Ativo 120 / 107 40% 4 26.07.2027 -
Marquinhos Rubin Ativo 128 / 128 68% 1 26.07.2027 Aprovar
Sanel Šaljić Austria Wien Ativo 111 / 123 40% 2 24.07.2027 -
Antoñito Cordero Newcastle United Ativo 113 / 126 40% 1 22.07.2027 -
Josh Nichols Arsenal Ativo 105 / 121 40% 4 05.07.2027 -
Ulises Giménez River Plate Ativo 100 / 129 40% 1 01.07.2027 -
Luca Raffin Rosario Central Ativo 98 / 117 40% 1 01.07.2027 -
Juan Manuel Villalba Estudiantes Ativo 104 / 130 40% 1 24.06.2027 -
Paulinho Barcelona Ativo 140 / 140 66% 1 14.06.2027 Aprovar
Petik Manukyan Urartu Ativo 116 / 116 40% 1 09.06.2027 -
Leon Grgić Red Bull Salzburg Ativo 131 / 123 40% 1 04.06.2027 -
Lionel Messi Chelsea Ativo 171 / 171 67% 1 01.06.2027 Aprovar
Johannes Eggestein VfB Stuttgart Ativo 125 / 125 67% 1 01.06.2027 Aprovar
Joseph Paintsil Feyenoord Ativo 130 / 130 67% 1 01.06.2027 Aprovar
Francis Amuzu Eintracht Frankfurt Ativo 129 / 129 67% 1 01.06.2027 Aprovar